sensor_id;sensor_type;location;lat;lon;timestamp;P1;durP1;ratioP1;P2;durP2;ratioP2
3487;SDS011;38546;48.170;11.724;2022-12-18T00:02:05;27.87;;;11.47;;
3487;SDS011;38546;48.170;11.724;2022-12-18T00:04:55;44.90;;;15.50;;
3487;SDS011;38546;48.170;11.724;2022-12-18T00:07:45;41.87;;;12.57;;
3487;SDS011;38546;48.170;11.724;2022-12-18T00:10:35;36.97;;;13.80;;
3487;SDS011;38546;48.170;11.724;2022-12-18T00:13:25;39.97;;;15.73;;
3487;SDS011;38546;48.170;11.724;2022-12-18T00:16:17;41.10;;;13.73;;
3487;SDS011;38546;48.170;11.724;2022-12-18T00:19:09;44.43;;;15.53;;
3487;SDS011;38546;48.170;11.724;2022-12-18T00:21:59;41.20;;;15.73;;
3487;SDS011;38546;48.170;11.724;2022-12-18T00:24:47;39.37;;;15.00;;
3487;SDS011;38546;48.170;11.724;2022-12-18T00:27:37;42.20;;;15.00;;
3487;SDS011;38546;48.170;11.724;2022-12-18T00:30:26;36.00;;;14.83;;
3487;SDS011;38546;48.170;11.724;2022-12-18T00:33:15;34.73;;;13.43;;
3487;SDS011;38546;48.170;11.724;2022-12-18T00:36:08;50.43;;;14.20;;
3487;SDS011;38546;48.170;11.724;2022-12-18T00:39:02;45.43;;;15.37;;
3487;SDS011;38546;48.170;11.724;2022-12-18T00:41:53;46.10;;;16.30;;
3487;SDS011;38546;48.170;11.724;2022-12-18T00:45:01;55.40;;;19.00;;
3487;SDS011;38546;48.170;11.724;2022-12-18T00:47:50;44.53;;;15.60;;
3487;SDS011;38546;48.170;11.724;2022-12-18T00:50:40;60.80;;;18.93;;
3487;SDS011;38546;48.170;11.724;2022-12-18T00:53:32;48.70;;;17.60;;
3487;SDS011;38546;48.170;11.724;2022-12-18T00:56:22;44.13;;;16.87;;
3487;SDS011;38546;48.170;11.724;2022-12-18T00:59:12;45.63;;;17.87;;
3487;SDS011;38546;48.170;11.724;2022-12-18T01:02:01;42.63;;;17.73;;
3487;SDS011;38546;48.170;11.724;2022-12-18T01:04:51;68.63;;;20.60;;
3487;SDS011;38546;48.170;11.724;2022-12-18T01:07:41;47.67;;;16.17;;
3487;SDS011;38546;48.170;11.724;2022-12-18T01:10:30;52.27;;;18.50;;
3487;SDS011;38546;48.170;11.724;2022-12-18T01:13:20;58.97;;;19.47;;
3487;SDS011;38546;48.170;11.724;2022-12-18T01:16:13;67.83;;;21.40;;
3487;SDS011;38546;48.170;11.724;2022-12-18T01:19:04;48.00;;;15.30;;
3487;SDS011;38546;48.170;11.724;2022-12-18T01:21:54;57.20;;;19.07;;
3487;SDS011;38546;48.170;11.724;2022-12-18T01:24:44;37.10;;;15.07;;
3487;SDS011;38546;48.170;11.724;2022-12-18T01:27:34;47.83;;;18.10;;
3487;SDS011;38546;48.170;11.724;2022-12-18T01:30:23;44.90;;;15.80;;
3487;SDS011;38546;48.170;11.724;2022-12-18T01:33:13;43.67;;;16.53;;
3487;SDS011;38546;48.170;11.724;2022-12-18T01:36:02;59.50;;;18.00;;
3487;SDS011;38546;48.170;11.724;2022-12-18T01:38:53;57.30;;;17.20;;
3487;SDS011;38546;48.170;11.724;2022-12-18T01:41:43;52.50;;;19.50;;
3487;SDS011;38546;48.170;11.724;2022-12-18T01:44:55;43.60;;;13.27;;
3487;SDS011;38546;48.170;11.724;2022-12-18T01:48:01;40.33;;;13.83;;
3487;SDS011;38546;48.170;11.724;2022-12-18T01:50:54;54.27;;;16.43;;
3487;SDS011;38546;48.170;11.724;2022-12-18T01:53:45;67.83;;;20.80;;
3487;SDS011;38546;48.170;11.724;2022-12-18T01:56:37;52.13;;;19.83;;
3487;SDS011;38546;48.170;11.724;2022-12-18T01:59:26;56.23;;;18.97;;
3487;SDS011;38546;48.170;11.724;2022-12-18T02:02:17;48.10;;;17.10;;
3487;SDS011;38546;48.170;11.724;2022-12-18T02:05:08;63.57;;;20.80;;
3487;SDS011;38546;48.170;11.724;2022-12-18T02:08:08;60.47;;;19.17;;
3487;SDS011;38546;48.170;11.724;2022-12-18T02:15:09;55.50;;;16.50;;
3487;SDS011;38546;48.170;11.724;2022-12-18T02:18:08;47.43;;;16.47;;
3487;SDS011;38546;48.170;11.724;2022-12-18T02:21:12;52.97;;;17.10;;
3487;SDS011;38546;48.170;11.724;2022-12-18T02:24:37;66.20;;;20.90;;
3487;SDS011;38546;48.170;11.724;2022-12-18T02:28:18;44.80;;;16.57;;
3487;SDS011;38546;48.170;11.724;2022-12-18T02:31:14;49.23;;;15.97;;
3487;SDS011;38546;48.170;11.724;2022-12-18T02:34:10;52.10;;;16.23;;
3487;SDS011;38546;48.170;11.724;2022-12-18T02:37:02;51.00;;;15.93;;
3487;SDS011;38546;48.170;11.724;2022-12-18T02:39:56;45.23;;;16.83;;
3487;SDS011;38546;48.170;11.724;2022-12-18T02:42:48;36.83;;;12.83;;
3487;SDS011;38546;48.170;11.724;2022-12-18T02:51:08;51.67;;;16.40;;
3487;SDS011;38546;48.170;11.724;2022-12-18T02:54:27;41.93;;;15.83;;
3487;SDS011;38546;48.170;11.724;2022-12-18T03:04:16;49.67;;;16.80;;
3487;SDS011;38546;48.170;11.724;2022-12-18T03:07:20;48.97;;;17.53;;
3487;SDS011;38546;48.170;11.724;2022-12-18T03:10:29;46.57;;;15.87;;
3487;SDS011;38546;48.170;11.724;2022-12-18T03:13:27;50.40;;;17.43;;
3487;SDS011;38546;48.170;11.724;2022-12-18T03:16:40;47.17;;;16.07;;
3487;SDS011;38546;48.170;11.724;2022-12-18T03:19:31;43.70;;;16.20;;
3487;SDS011;38546;48.170;11.724;2022-12-18T03:22:23;42.93;;;15.17;;
3487;SDS011;38546;48.170;11.724;2022-12-18T03:25:15;46.60;;;16.73;;
3487;SDS011;38546;48.170;11.724;2022-12-18T03:28:08;61.17;;;18.20;;
3487;SDS011;38546;48.170;11.724;2022-12-18T03:31:02;37.87;;;14.17;;
3487;SDS011;38546;48.170;11.724;2022-12-18T03:33:57;41.57;;;16.73;;
3487;SDS011;38546;48.170;11.724;2022-12-18T03:36:51;44.70;;;16.40;;
3487;SDS011;38546;48.170;11.724;2022-12-18T03:39:40;31.33;;;12.03;;
3487;SDS011;38546;48.170;11.724;2022-12-18T03:42:43;58.00;;;18.20;;
3487;SDS011;38546;48.170;11.724;2022-12-18T03:45:46;49.07;;;15.40;;
3487;SDS011;38546;48.170;11.724;2022-12-18T03:48:46;52.40;;;17.30;;
3487;SDS011;38546;48.170;11.724;2022-12-18T03:51:49;41.33;;;15.33;;
3487;SDS011;38546;48.170;11.724;2022-12-18T03:54:45;48.97;;;14.87;;
3487;SDS011;38546;48.170;11.724;2022-12-18T03:57:35;41.27;;;15.63;;
3487;SDS011;38546;48.170;11.724;2022-12-18T04:00:26;39.50;;;16.63;;
3487;SDS011;38546;48.170;11.724;2022-12-18T04:03:18;56.33;;;17.53;;
3487;SDS011;38546;48.170;11.724;2022-12-18T04:06:10;51.23;;;16.77;;
3487;SDS011;38546;48.170;11.724;2022-12-18T04:09:00;44.47;;;18.57;;
3487;SDS011;38546;48.170;11.724;2022-12-18T04:11:50;41.17;;;16.23;;
3487;SDS011;38546;48.170;11.724;2022-12-18T04:14:41;46.70;;;13.33;;
3487;SDS011;38546;48.170;11.724;2022-12-18T04:17:30;36.97;;;15.80;;
3487;SDS011;38546;48.170;11.724;2022-12-18T04:20:19;54.83;;;17.83;;
3487;SDS011;38546;48.170;11.724;2022-12-18T04:23:09;43.53;;;16.60;;
3487;SDS011;38546;48.170;11.724;2022-12-18T04:25:58;57.77;;;18.20;;
3487;SDS011;38546;48.170;11.724;2022-12-18T04:28:48;43.70;;;13.93;;
3487;SDS011;38546;48.170;11.724;2022-12-18T04:31:38;39.30;;;16.17;;
3487;SDS011;38546;48.170;11.724;2022-12-18T04:34:28;50.03;;;16.40;;
3487;SDS011;38546;48.170;11.724;2022-12-18T04:37:17;38.30;;;12.60;;
3487;SDS011;38546;48.170;11.724;2022-12-18T04:40:07;39.57;;;15.27;;
3487;SDS011;38546;48.170;11.724;2022-12-18T04:42:58;41.00;;;15.53;;
3487;SDS011;38546;48.170;11.724;2022-12-18T04:45:47;46.53;;;16.23;;
3487;SDS011;38546;48.170;11.724;2022-12-18T04:48:36;57.43;;;21.30;;
3487;SDS011;38546;48.170;11.724;2022-12-18T04:51:26;57.20;;;18.00;;
3487;SDS011;38546;48.170;11.724;2022-12-18T04:54:15;45.97;;;14.63;;
3487;SDS011;38546;48.170;11.724;2022-12-18T04:57:04;43.33;;;15.23;;
3487;SDS011;38546;48.170;11.724;2022-12-18T04:59:53;29.97;;;13.67;;
3487;SDS011;38546;48.170;11.724;2022-12-18T05:02:42;52.80;;;18.50;;
3487;SDS011;38546;48.170;11.724;2022-12-18T05:05:34;55.33;;;17.90;;
3487;SDS011;38546;48.170;11.724;2022-12-18T05:08:24;54.80;;;17.00;;
3487;SDS011;38546;48.170;11.724;2022-12-18T05:11:14;46.47;;;16.07;;
3487;SDS011;38546;48.170;11.724;2022-12-18T05:14:04;48.20;;;15.27;;
3487;SDS011;38546;48.170;11.724;2022-12-18T05:16:54;45.37;;;15.60;;
3487;SDS011;38546;48.170;11.724;2022-12-18T05:19:43;36.80;;;13.47;;
3487;SDS011;38546;48.170;11.724;2022-12-18T05:22:33;38.87;;;12.60;;
3487;SDS011;38546;48.170;11.724;2022-12-18T05:25:22;43.20;;;17.50;;
3487;SDS011;38546;48.170;11.724;2022-12-18T05:28:12;42.10;;;15.00;;
3487;SDS011;38546;48.170;11.724;2022-12-18T05:31:02;36.47;;;14.10;;
3487;SDS011;38546;48.170;11.724;2022-12-18T05:33:52;59.93;;;18.57;;
3487;SDS011;38546;48.170;11.724;2022-12-18T05:36:41;34.57;;;13.77;;
3487;SDS011;38546;48.170;11.724;2022-12-18T05:39:30;52.03;;;19.10;;
3487;SDS011;38546;48.170;11.724;2022-12-18T05:42:19;32.73;;;12.10;;
3487;SDS011;38546;48.170;11.724;2022-12-18T05:45:09;38.30;;;15.17;;
3487;SDS011;38546;48.170;11.724;2022-12-18T05:47:58;43.70;;;16.17;;
3487;SDS011;38546;48.170;11.724;2022-12-18T05:50:48;37.83;;;13.10;;
3487;SDS011;38546;48.170;11.724;2022-12-18T05:53:38;50.23;;;16.57;;
3487;SDS011;38546;48.170;11.724;2022-12-18T05:56:27;31.57;;;13.00;;
3487;SDS011;38546;48.170;11.724;2022-12-18T05:59:16;49.47;;;18.30;;
3487;SDS011;38546;48.170;11.724;2022-12-18T06:02:05;39.53;;;15.37;;
3487;SDS011;38546;48.170;11.724;2022-12-18T06:04:53;44.87;;;14.97;;
3487;SDS011;38546;48.170;11.724;2022-12-18T06:07:43;29.73;;;13.13;;
3487;SDS011;38546;48.170;11.724;2022-12-18T06:10:32;42.67;;;13.33;;
3487;SDS011;38546;48.170;11.724;2022-12-18T06:13:22;41.03;;;16.77;;
3487;SDS011;38546;48.170;11.724;2022-12-18T06:16:11;51.67;;;18.50;;
3487;SDS011;38546;48.170;11.724;2022-12-18T06:19:01;39.70;;;14.63;;
3487;SDS011;38546;48.170;11.724;2022-12-18T06:21:53;39.63;;;14.00;;
3487;SDS011;38546;48.170;11.724;2022-12-18T06:24:42;36.97;;;12.27;;
3487;SDS011;38546;48.170;11.724;2022-12-18T06:27:32;42.77;;;13.70;;
3487;SDS011;38546;48.170;11.724;2022-12-18T06:30:24;47.93;;;15.50;;
3487;SDS011;38546;48.170;11.724;2022-12-18T06:33:13;39.30;;;13.00;;
3487;SDS011;38546;48.170;11.724;2022-12-18T06:36:09;39.80;;;14.50;;
3487;SDS011;38546;48.170;11.724;2022-12-18T06:39:00;39.20;;;15.63;;
3487;SDS011;38546;48.170;11.724;2022-12-18T06:41:49;39.60;;;16.03;;
3487;SDS011;38546;48.170;11.724;2022-12-18T06:44:38;44.23;;;13.80;;
3487;SDS011;38546;48.170;11.724;2022-12-18T06:47:27;46.13;;;14.70;;
3487;SDS011;38546;48.170;11.724;2022-12-18T06:50:16;48.30;;;14.93;;
3487;SDS011;38546;48.170;11.724;2022-12-18T06:53:05;48.20;;;16.60;;
3487;SDS011;38546;48.170;11.724;2022-12-18T06:56:05;37.53;;;13.77;;
3487;SDS011;38546;48.170;11.724;2022-12-18T06:58:56;56.50;;;18.03;;
3487;SDS011;38546;48.170;11.724;2022-12-18T07:01:45;45.93;;;17.60;;
3487;SDS011;38546;48.170;11.724;2022-12-18T07:04:34;33.27;;;12.87;;
3487;SDS011;38546;48.170;11.724;2022-12-18T07:07:24;39.77;;;17.40;;
3487;SDS011;38546;48.170;11.724;2022-12-18T07:10:13;49.47;;;16.87;;
3487;SDS011;38546;48.170;11.724;2022-12-18T07:13:03;40.77;;;13.57;;
3487;SDS011;38546;48.170;11.724;2022-12-18T07:15:52;38.00;;;13.37;;
3487;SDS011;38546;48.170;11.724;2022-12-18T07:18:41;34.87;;;13.40;;
3487;SDS011;38546;48.170;11.724;2022-12-18T07:21:29;41.53;;;13.97;;
3487;SDS011;38546;48.170;11.724;2022-12-18T07:24:19;31.60;;;11.90;;
3487;SDS011;38546;48.170;11.724;2022-12-18T07:27:08;29.87;;;13.37;;
3487;SDS011;38546;48.170;11.724;2022-12-18T07:29:57;37.20;;;11.30;;
3487;SDS011;38546;48.170;11.724;2022-12-18T07:32:46;42.90;;;13.80;;
3487;SDS011;38546;48.170;11.724;2022-12-18T07:35:37;39.20;;;14.50;;
3487;SDS011;38546;48.170;11.724;2022-12-18T07:38:26;32.87;;;13.33;;
3487;SDS011;38546;48.170;11.724;2022-12-18T07:41:16;44.77;;;15.97;;
3487;SDS011;38546;48.170;11.724;2022-12-18T07:44:05;38.10;;;13.93;;
3487;SDS011;38546;48.170;11.724;2022-12-18T07:46:54;37.23;;;15.70;;
3487;SDS011;38546;48.170;11.724;2022-12-18T07:49:43;43.17;;;14.27;;
3487;SDS011;38546;48.170;11.724;2022-12-18T07:52:32;42.10;;;15.93;;
3487;SDS011;38546;48.170;11.724;2022-12-18T07:55:21;33.10;;;11.90;;
3487;SDS011;38546;48.170;11.724;2022-12-18T07:58:10;30.27;;;13.77;;
3487;SDS011;38546;48.170;11.724;2022-12-18T08:01:03;30.77;;;11.13;;
3487;SDS011;38546;48.170;11.724;2022-12-18T08:03:54;29.03;;;11.17;;
3487;SDS011;38546;48.170;11.724;2022-12-18T08:06:43;33.00;;;12.30;;
3487;SDS011;38546;48.170;11.724;2022-12-18T08:09:32;49.27;;;14.90;;
3487;SDS011;38546;48.170;11.724;2022-12-18T08:12:21;38.13;;;15.20;;
3487;SDS011;38546;48.170;11.724;2022-12-18T08:15:11;24.57;;;11.70;;
3487;SDS011;38546;48.170;11.724;2022-12-18T08:18:00;32.10;;;13.23;;
3487;SDS011;38546;48.170;11.724;2022-12-18T08:20:50;31.30;;;11.50;;
3487;SDS011;38546;48.170;11.724;2022-12-18T08:23:40;29.33;;;11.30;;
3487;SDS011;38546;48.170;11.724;2022-12-18T08:26:29;51.77;;;13.40;;
3487;SDS011;38546;48.170;11.724;2022-12-18T08:29:20;34.57;;;11.83;;
3487;SDS011;38546;48.170;11.724;2022-12-18T08:32:09;36.20;;;13.87;;
3487;SDS011;38546;48.170;11.724;2022-12-18T08:34:58;30.73;;;13.27;;
3487;SDS011;38546;48.170;11.724;2022-12-18T08:37:48;23.47;;;10.10;;
3487;SDS011;38546;48.170;11.724;2022-12-18T08:40:37;27.07;;;12.40;;
3487;SDS011;38546;48.170;11.724;2022-12-18T08:43:26;31.80;;;11.57;;
3487;SDS011;38546;48.170;11.724;2022-12-18T08:46:35;26.93;;;11.30;;
3487;SDS011;38546;48.170;11.724;2022-12-18T08:49:27;32.10;;;12.33;;
3487;SDS011;38546;48.170;11.724;2022-12-18T08:52:16;42.37;;;15.20;;
3487;SDS011;38546;48.170;11.724;2022-12-18T08:55:06;36.17;;;11.27;;
3487;SDS011;38546;48.170;11.724;2022-12-18T08:57:57;32.43;;;13.03;;
3487;SDS011;38546;48.170;11.724;2022-12-18T09:00:47;45.23;;;12.10;;
3487;SDS011;38546;48.170;11.724;2022-12-18T09:03:36;28.23;;;12.10;;
3487;SDS011;38546;48.170;11.724;2022-12-18T09:06:26;31.23;;;11.97;;
3487;SDS011;38546;48.170;11.724;2022-12-18T09:09:16;38.43;;;14.10;;
3487;SDS011;38546;48.170;11.724;2022-12-18T09:12:05;22.50;;;11.67;;
3487;SDS011;38546;48.170;11.724;2022-12-18T09:14:55;23.03;;;9.97;;
3487;SDS011;38546;48.170;11.724;2022-12-18T09:17:45;25.43;;;11.40;;
3487;SDS011;38546;48.170;11.724;2022-12-18T09:20:35;24.53;;;10.73;;
3487;SDS011;38546;48.170;11.724;2022-12-18T09:23:25;25.60;;;11.83;;
3487;SDS011;38546;48.170;11.724;2022-12-18T09:26:15;31.93;;;13.47;;
3487;SDS011;38546;48.170;11.724;2022-12-18T09:29:05;25.53;;;11.17;;
3487;SDS011;38546;48.170;11.724;2022-12-18T09:31:58;41.17;;;15.73;;
3487;SDS011;38546;48.170;11.724;2022-12-18T09:34:47;27.13;;;12.60;;
3487;SDS011;38546;48.170;11.724;2022-12-18T09:37:36;27.40;;;11.50;;
3487;SDS011;38546;48.170;11.724;2022-12-18T09:40:27;34.23;;;14.00;;
3487;SDS011;38546;48.170;11.724;2022-12-18T09:43:35;30.90;;;11.33;;
3487;SDS011;38546;48.170;11.724;2022-12-18T09:46:34;30.97;;;11.97;;
3487;SDS011;38546;48.170;11.724;2022-12-18T09:49:34;36.43;;;13.03;;
3487;SDS011;38546;48.170;11.724;2022-12-18T09:52:36;31.47;;;13.23;;
3487;SDS011;38546;48.170;11.724;2022-12-18T09:55:49;30.03;;;11.73;;
3487;SDS011;38546;48.170;11.724;2022-12-18T09:58:44;31.43;;;11.07;;
3487;SDS011;38546;48.170;11.724;2022-12-18T10:01:50;29.13;;;12.70;;
3487;SDS011;38546;48.170;11.724;2022-12-18T10:04:41;32.20;;;12.37;;
3487;SDS011;38546;48.170;11.724;2022-12-18T10:07:52;24.20;;;11.47;;
3487;SDS011;38546;48.170;11.724;2022-12-18T10:11:21;32.27;;;10.67;;
3487;SDS011;38546;48.170;11.724;2022-12-18T10:14:27;30.77;;;12.00;;
3487;SDS011;38546;48.170;11.724;2022-12-18T10:17:45;23.27;;;9.87;;
3487;SDS011;38546;48.170;11.724;2022-12-18T10:21:11;20.43;;;8.07;;
3487;SDS011;38546;48.170;11.724;2022-12-18T10:28:54;22.00;;;8.83;;
3487;SDS011;38546;48.170;11.724;2022-12-18T10:31:47;26.20;;;11.50;;
3487;SDS011;38546;48.170;11.724;2022-12-18T10:34:36;27.93;;;9.70;;
3487;SDS011;38546;48.170;11.724;2022-12-18T10:37:27;22.17;;;11.23;;
3487;SDS011;38546;48.170;11.724;2022-12-18T10:40:18;24.30;;;10.30;;
3487;SDS011;38546;48.170;11.724;2022-12-18T10:43:12;25.20;;;10.40;;
3487;SDS011;38546;48.170;11.724;2022-12-18T10:49:47;33.90;;;12.30;;
3487;SDS011;38546;48.170;11.724;2022-12-18T10:52:40;23.80;;;9.47;;
3487;SDS011;38546;48.170;11.724;2022-12-18T10:55:31;28.20;;;11.40;;
3487;SDS011;38546;48.170;11.724;2022-12-18T10:58:30;32.03;;;12.00;;
3487;SDS011;38546;48.170;11.724;2022-12-18T11:01:26;25.63;;;12.90;;
3487;SDS011;38546;48.170;11.724;2022-12-18T11:04:21;15.97;;;8.73;;
3487;SDS011;38546;48.170;11.724;2022-12-18T11:07:14;20.57;;;9.53;;
3487;SDS011;38546;48.170;11.724;2022-12-18T11:10:03;19.63;;;9.87;;
3487;SDS011;38546;48.170;11.724;2022-12-18T11:12:54;24.23;;;10.43;;
3487;SDS011;38546;48.170;11.724;2022-12-18T11:15:44;28.37;;;9.73;;
3487;SDS011;38546;48.170;11.724;2022-12-18T11:18:34;22.37;;;9.73;;
3487;SDS011;38546;48.170;11.724;2022-12-18T11:21:25;17.63;;;9.87;;
3487;SDS011;38546;48.170;11.724;2022-12-18T11:24:33;25.00;;;8.73;;
3487;SDS011;38546;48.170;11.724;2022-12-18T11:27:25;20.87;;;9.20;;
3487;SDS011;38546;48.170;11.724;2022-12-18T11:30:25;22.33;;;9.13;;
3487;SDS011;38546;48.170;11.724;2022-12-18T11:33:19;23.50;;;10.90;;
3487;SDS011;38546;48.170;11.724;2022-12-18T11:36:10;19.23;;;7.87;;
3487;SDS011;38546;48.170;11.724;2022-12-18T11:39:02;30.97;;;11.30;;
3487;SDS011;38546;48.170;11.724;2022-12-18T11:42:08;27.47;;;10.93;;
3487;SDS011;38546;48.170;11.724;2022-12-18T11:48:32;21.17;;;9.70;;
3487;SDS011;38546;48.170;11.724;2022-12-18T11:51:56;22.60;;;9.30;;
3487;SDS011;38546;48.170;11.724;2022-12-18T11:54:55;24.43;;;9.83;;
3487;SDS011;38546;48.170;11.724;2022-12-18T11:57:58;22.37;;;10.30;;
3487;SDS011;38546;48.170;11.724;2022-12-18T12:06:08;18.83;;;8.47;;
3487;SDS011;38546;48.170;11.724;2022-12-18T12:19:35;24.90;;;9.57;;
3487;SDS011;38546;48.170;11.724;2022-12-18T12:25:49;21.23;;;8.80;;
3487;SDS011;38546;48.170;11.724;2022-12-18T12:31:57;20.73;;;9.83;;
3487;SDS011;38546;48.170;11.724;2022-12-18T12:41:31;28.07;;;9.70;;
3487;SDS011;38546;48.170;11.724;2022-12-18T12:44:46;24.93;;;9.40;;
3487;SDS011;38546;48.170;11.724;2022-12-18T12:47:44;27.90;;;10.53;;
3487;SDS011;38546;48.170;11.724;2022-12-18T12:50:37;23.20;;;9.40;;
3487;SDS011;38546;48.170;11.724;2022-12-18T12:53:29;22.63;;;8.83;;
3487;SDS011;38546;48.170;11.724;2022-12-18T12:56:24;25.63;;;10.23;;
3487;SDS011;38546;48.170;11.724;2022-12-18T13:00:06;23.23;;;9.40;;
3487;SDS011;38546;48.170;11.724;2022-12-18T13:03:12;30.23;;;11.37;;
3487;SDS011;38546;48.170;11.724;2022-12-18T13:10:27;21.87;;;9.40;;
3487;SDS011;38546;48.170;11.724;2022-12-18T13:13:27;24.73;;;10.50;;
3487;SDS011;38546;48.170;11.724;2022-12-18T13:16:42;26.43;;;10.87;;
3487;SDS011;38546;48.170;11.724;2022-12-18T13:19:31;24.37;;;9.63;;
3487;SDS011;38546;48.170;11.724;2022-12-18T13:22:25;33.00;;;10.90;;
3487;SDS011;38546;48.170;11.724;2022-12-18T13:25:32;22.27;;;9.60;;
3487;SDS011;38546;48.170;11.724;2022-12-18T13:32:33;20.23;;;8.73;;
3487;SDS011;38546;48.170;11.724;2022-12-18T13:36:11;18.20;;;9.20;;
3487;SDS011;38546;48.170;11.724;2022-12-18T13:39:22;19.43;;;9.67;;
3487;SDS011;38546;48.170;11.724;2022-12-18T13:42:37;30.13;;;10.60;;
3487;SDS011;38546;48.170;11.724;2022-12-18T13:45:58;25.20;;;11.07;;
3487;SDS011;38546;48.170;11.724;2022-12-18T13:52:41;23.43;;;10.80;;
3487;SDS011;38546;48.170;11.724;2022-12-18T13:55:32;25.07;;;10.27;;
3487;SDS011;38546;48.170;11.724;2022-12-18T13:58:22;27.77;;;9.70;;
3487;SDS011;38546;48.170;11.724;2022-12-18T14:01:21;24.57;;;9.90;;
3487;SDS011;38546;48.170;11.724;2022-12-18T14:04:16;23.63;;;10.10;;
3487;SDS011;38546;48.170;11.724;2022-12-18T14:07:25;29.23;;;9.80;;
3487;SDS011;38546;48.170;11.724;2022-12-18T14:10:17;23.03;;;10.97;;
3487;SDS011;38546;48.170;11.724;2022-12-18T14:13:07;22.50;;;9.93;;
3487;SDS011;38546;48.170;11.724;2022-12-18T14:16:00;24.70;;;10.80;;
3487;SDS011;38546;48.170;11.724;2022-12-18T14:18:56;17.77;;;8.33;;
3487;SDS011;38546;48.170;11.724;2022-12-18T14:21:47;30.47;;;11.40;;
3487;SDS011;38546;48.170;11.724;2022-12-18T14:24:38;26.10;;;10.80;;
3487;SDS011;38546;48.170;11.724;2022-12-18T14:27:27;30.70;;;11.90;;
3487;SDS011;38546;48.170;11.724;2022-12-18T14:30:28;31.73;;;14.07;;
3487;SDS011;38546;48.170;11.724;2022-12-18T14:33:30;32.27;;;12.23;;
3487;SDS011;38546;48.170;11.724;2022-12-18T14:36:20;26.13;;;10.47;;
3487;SDS011;38546;48.170;11.724;2022-12-18T14:39:19;23.90;;;10.30;;
3487;SDS011;38546;48.170;11.724;2022-12-18T14:42:10;30.10;;;12.80;;
3487;SDS011;38546;48.170;11.724;2022-12-18T14:50:11;43.93;;;13.60;;
3487;SDS011;38546;48.170;11.724;2022-12-18T14:53:02;26.33;;;11.00;;
3487;SDS011;38546;48.170;11.724;2022-12-18T14:55:52;29.83;;;11.00;;
3487;SDS011;38546;48.170;11.724;2022-12-18T14:58:46;23.80;;;10.17;;
3487;SDS011;38546;48.170;11.724;2022-12-18T15:01:47;25.27;;;11.97;;
3487;SDS011;38546;48.170;11.724;2022-12-18T15:08:38;26.50;;;10.10;;
3487;SDS011;38546;48.170;11.724;2022-12-18T15:11:31;28.93;;;11.87;;
3487;SDS011;38546;48.170;11.724;2022-12-18T15:14:43;31.33;;;11.40;;
3487;SDS011;38546;48.170;11.724;2022-12-18T15:17:32;30.90;;;11.10;;
3487;SDS011;38546;48.170;11.724;2022-12-18T15:20:21;24.27;;;10.90;;
3487;SDS011;38546;48.170;11.724;2022-12-18T15:23:21;34.17;;;12.77;;
3487;SDS011;38546;48.170;11.724;2022-12-18T15:26:14;35.00;;;12.30;;
3487;SDS011;38546;48.170;11.724;2022-12-18T15:29:15;34.13;;;11.87;;
3487;SDS011;38546;48.170;11.724;2022-12-18T15:32:15;25.83;;;12.67;;
3487;SDS011;38546;48.170;11.724;2022-12-18T15:35:15;24.10;;;10.70;;
3487;SDS011;38546;48.170;11.724;2022-12-18T15:38:11;28.07;;;12.87;;
3487;SDS011;38546;48.170;11.724;2022-12-18T15:41:00;34.50;;;12.90;;
3487;SDS011;38546;48.170;11.724;2022-12-18T15:43:50;31.60;;;11.27;;
3487;SDS011;38546;48.170;11.724;2022-12-18T15:46:42;31.37;;;11.20;;
3487;SDS011;38546;48.170;11.724;2022-12-18T15:49:30;34.10;;;12.30;;
3487;SDS011;38546;48.170;11.724;2022-12-18T15:52:19;26.57;;;11.43;;
3487;SDS011;38546;48.170;11.724;2022-12-18T15:55:15;33.70;;;13.20;;
3487;SDS011;38546;48.170;11.724;2022-12-18T15:58:26;29.10;;;10.80;;
3487;SDS011;38546;48.170;11.724;2022-12-18T16:01:16;28.63;;;12.33;;
3487;SDS011;38546;48.170;11.724;2022-12-18T16:04:08;30.70;;;11.40;;
3487;SDS011;38546;48.170;11.724;2022-12-18T16:07:04;38.43;;;13.63;;
3487;SDS011;38546;48.170;11.724;2022-12-18T16:09:54;28.37;;;13.97;;
3487;SDS011;38546;48.170;11.724;2022-12-18T16:12:43;41.13;;;14.47;;
3487;SDS011;38546;48.170;11.724;2022-12-18T16:15:32;30.37;;;13.13;;
3487;SDS011;38546;48.170;11.724;2022-12-18T16:18:21;26.33;;;11.70;;
3487;SDS011;38546;48.170;11.724;2022-12-18T16:21:10;29.70;;;12.87;;
3487;SDS011;38546;48.170;11.724;2022-12-18T16:24:00;30.13;;;13.00;;
3487;SDS011;38546;48.170;11.724;2022-12-18T16:26:49;29.30;;;13.53;;
3487;SDS011;38546;48.170;11.724;2022-12-18T16:29:41;31.30;;;13.27;;
3487;SDS011;38546;48.170;11.724;2022-12-18T16:32:31;25.00;;;13.07;;
3487;SDS011;38546;48.170;11.724;2022-12-18T16:35:22;30.50;;;11.57;;
3487;SDS011;38546;48.170;11.724;2022-12-18T16:38:12;30.77;;;12.10;;
3487;SDS011;38546;48.170;11.724;2022-12-18T16:41:01;40.00;;;13.83;;
3487;SDS011;38546;48.170;11.724;2022-12-18T16:44:09;35.07;;;12.67;;
3487;SDS011;38546;48.170;11.724;2022-12-18T16:46:58;26.57;;;11.43;;
3487;SDS011;38546;48.170;11.724;2022-12-18T16:49:50;33.37;;;15.47;;
3487;SDS011;38546;48.170;11.724;2022-12-18T16:52:40;42.90;;;14.97;;
3487;SDS011;38546;48.170;11.724;2022-12-18T16:55:29;35.53;;;13.23;;
3487;SDS011;38546;48.170;11.724;2022-12-18T16:58:19;27.60;;;11.90;;
3487;SDS011;38546;48.170;11.724;2022-12-18T17:01:09;24.60;;;10.80;;
3487;SDS011;38546;48.170;11.724;2022-12-18T17:04:00;31.23;;;14.13;;
3487;SDS011;38546;48.170;11.724;2022-12-18T17:06:51;28.73;;;12.53;;
3487;SDS011;38546;48.170;11.724;2022-12-18T17:09:41;38.17;;;12.27;;
3487;SDS011;38546;48.170;11.724;2022-12-18T17:12:31;36.07;;;13.13;;
3487;SDS011;38546;48.170;11.724;2022-12-18T17:15:20;29.73;;;11.80;;
3487;SDS011;38546;48.170;11.724;2022-12-18T17:18:09;36.97;;;13.70;;
3487;SDS011;38546;48.170;11.724;2022-12-18T17:21:02;42.13;;;17.43;;
3487;SDS011;38546;48.170;11.724;2022-12-18T17:23:58;28.77;;;11.53;;
3487;SDS011;38546;48.170;11.724;2022-12-18T17:26:49;33.50;;;12.57;;
3487;SDS011;38546;48.170;11.724;2022-12-18T17:29:39;26.90;;;11.43;;
3487;SDS011;38546;48.170;11.724;2022-12-18T17:32:29;35.23;;;13.77;;
3487;SDS011;38546;48.170;11.724;2022-12-18T17:35:17;33.27;;;12.47;;
3487;SDS011;38546;48.170;11.724;2022-12-18T17:38:06;35.90;;;14.53;;
3487;SDS011;38546;48.170;11.724;2022-12-18T17:41:00;40.27;;;15.10;;
3487;SDS011;38546;48.170;11.724;2022-12-18T17:43:51;39.17;;;13.40;;
3487;SDS011;38546;48.170;11.724;2022-12-18T17:46:41;37.63;;;14.33;;
3487;SDS011;38546;48.170;11.724;2022-12-18T17:49:31;32.83;;;13.10;;
3487;SDS011;38546;48.170;11.724;2022-12-18T17:52:20;31.70;;;12.47;;
3487;SDS011;38546;48.170;11.724;2022-12-18T17:55:09;30.90;;;10.50;;
3487;SDS011;38546;48.170;11.724;2022-12-18T17:57:58;28.93;;;13.73;;
3487;SDS011;38546;48.170;11.724;2022-12-18T18:00:47;39.17;;;13.43;;
3487;SDS011;38546;48.170;11.724;2022-12-18T18:03:37;23.83;;;11.13;;
3487;SDS011;38546;48.170;11.724;2022-12-18T18:06:26;41.87;;;12.00;;
3487;SDS011;38546;48.170;11.724;2022-12-18T18:09:16;43.77;;;15.40;;
3487;SDS011;38546;48.170;11.724;2022-12-18T18:12:05;43.77;;;15.90;;
3487;SDS011;38546;48.170;11.724;2022-12-18T18:15:15;33.30;;;12.17;;
3487;SDS011;38546;48.170;11.724;2022-12-18T18:18:04;35.67;;;14.27;;